createdAt,value
2022-12-22T00:01:59.728Z,0.80
2022-12-22T00:04:45.284Z,1.17
2022-12-22T00:07:30.936Z,1.13
2022-12-22T00:10:16.543Z,1.03
2022-12-22T00:13:02.211Z,1.20
2022-12-22T00:15:50.359Z,0.90
2022-12-22T00:18:36.368Z,0.70
2022-12-22T00:21:21.686Z,0.57
2022-12-22T00:24:07.386Z,0.50
2022-12-22T00:26:55.186Z,0.43
2022-12-22T00:29:41.158Z,0.50
2022-12-22T00:32:32.701Z,0.40
2022-12-22T00:35:19.467Z,0.70
2022-12-22T00:38:05.221Z,0.40
2022-12-22T00:40:50.817Z,0.47
2022-12-22T00:43:36.354Z,0.30
2022-12-22T00:46:23.103Z,0.50
2022-12-22T00:49:09.763Z,0.63
2022-12-22T00:51:55.456Z,0.60
2022-12-22T00:54:41.995Z,0.47
2022-12-22T00:57:36.085Z,0.50
2022-12-22T01:00:24.344Z,0.53
2022-12-22T01:03:10.638Z,0.50
2022-12-22T01:05:56.785Z,0.70
2022-12-22T01:08:42.502Z,0.50
2022-12-22T01:11:28.142Z,0.50
2022-12-22T01:14:13.670Z,0.50
2022-12-22T01:16:59.488Z,0.55
2022-12-22T01:19:45.059Z,0.50
2022-12-22T01:22:34.734Z,0.50
2022-12-22T01:25:20.396Z,0.30
2022-12-22T01:28:06.106Z,0.38
2022-12-22T01:30:51.769Z,0.40
2022-12-22T01:33:37.306Z,0.30
2022-12-22T01:36:23.201Z,0.40
2022-12-22T01:39:09.097Z,0.30
2022-12-22T01:41:54.866Z,0.40
2022-12-22T01:44:40.343Z,0.40
2022-12-22T01:47:48.052Z,0.40
2022-12-22T01:50:37.623Z,0.47
2022-12-22T01:53:27.188Z,0.32
2022-12-22T01:56:13.156Z,0.30
2022-12-22T01:59:05.303Z,0.20
2022-12-22T02:01:52.402Z,0.40
2022-12-22T02:04:41.812Z,0.30
2022-12-22T02:07:56.541Z,0.30
2022-12-22T02:11:16.266Z,0.30
2022-12-22T02:14:29.737Z,0.30
2022-12-22T02:17:30.011Z,0.20
2022-12-22T02:20:34.138Z,0.30
2022-12-22T02:23:35.659Z,0.30
2022-12-22T02:26:46.131Z,0.30
2022-12-22T02:29:34.617Z,0.40
2022-12-22T02:32:20.499Z,0.40
2022-12-22T02:35:05.958Z,0.40
2022-12-22T02:37:57.594Z,0.85
2022-12-22T02:40:56.052Z,0.30
2022-12-22T02:43:53.768Z,0.32
2022-12-22T02:47:02.897Z,0.38
2022-12-22T02:49:59.393Z,0.40
2022-12-22T02:52:52.145Z,0.40
2022-12-22T02:55:38.788Z,0.40
2022-12-22T02:58:25.092Z,0.40
2022-12-22T03:01:11.140Z,0.45
2022-12-22T03:03:56.881Z,0.30
2022-12-22T03:06:42.373Z,0.50
2022-12-22T03:09:28.106Z,0.40
2022-12-22T03:12:13.610Z,0.50
2022-12-22T03:14:59.097Z,0.60
2022-12-22T03:17:44.854Z,0.50
2022-12-22T03:20:30.432Z,0.60
2022-12-22T03:23:21.383Z,0.50
2022-12-22T03:25:54.508Z,0.43
2022-12-22T03:28:24.499Z,0.50
2022-12-22T03:31:01.970Z,0.50
2022-12-22T03:33:30.114Z,0.40
2022-12-22T03:35:57.776Z,0.50
2022-12-22T03:38:25.453Z,0.40
2022-12-22T03:40:52.792Z,0.50
2022-12-22T03:43:38.244Z,0.68
2022-12-22T03:46:15.217Z,0.65
2022-12-22T03:48:43.087Z,0.40
2022-12-22T03:51:10.888Z,0.47
2022-12-22T03:53:38.069Z,0.43
2022-12-22T03:56:07.998Z,0.50
2022-12-22T03:58:35.522Z,0.85
2022-12-22T04:01:07.165Z,0.43
2022-12-22T04:03:34.489Z,0.55
2022-12-22T04:06:01.582Z,0.40
2022-12-22T04:08:28.682Z,0.30
2022-12-22T04:11:14.275Z,0.40
2022-12-22T04:13:41.463Z,0.30
2022-12-22T04:16:08.602Z,0.30
2022-12-22T04:18:35.778Z,0.40
2022-12-22T04:21:02.905Z,0.32
2022-12-22T04:23:30.069Z,0.30
2022-12-22T04:25:57.164Z,0.70
2022-12-22T04:28:24.332Z,0.30
2022-12-22T04:30:51.661Z,0.40
2022-12-22T04:33:18.879Z,0.38
2022-12-22T04:35:45.947Z,0.40
2022-12-22T04:38:13.213Z,0.40
2022-12-22T04:40:41.033Z,0.30
2022-12-22T04:43:08.952Z,0.30
2022-12-22T04:45:36.150Z,0.30
2022-12-22T04:48:03.309Z,0.40
2022-12-22T04:50:30.456Z,0.30
2022-12-22T04:52:57.681Z,0.40
2022-12-22T04:55:24.816Z,0.30
2022-12-22T04:57:51.959Z,0.30
2022-12-22T05:00:19.715Z,0.40
2022-12-22T05:02:47.042Z,0.30
2022-12-22T05:05:14.744Z,0.57
2022-12-22T05:07:41.892Z,0.30
2022-12-22T05:10:09.929Z,0.30
2022-12-22T05:12:55.232Z,0.30
2022-12-22T05:15:24.252Z,0.40
2022-12-22T05:17:51.456Z,0.30
2022-12-22T05:20:19.444Z,0.40
2022-12-22T05:22:46.997Z,0.40
2022-12-22T05:25:16.716Z,0.20
2022-12-22T05:27:49.605Z,0.30
2022-12-22T05:30:18.386Z,0.40
2022-12-22T05:32:45.819Z,0.30
2022-12-22T05:35:13.480Z,0.30
2022-12-22T05:37:41.128Z,0.30
2022-12-22T05:40:09.414Z,0.40
2022-12-22T05:42:36.560Z,0.38
2022-12-22T05:45:18.860Z,0.30
2022-12-22T05:47:51.485Z,0.30
2022-12-22T05:50:22.327Z,0.30
2022-12-22T05:52:58.548Z,0.40
2022-12-22T05:55:25.904Z,0.30
2022-12-22T05:57:53.055Z,0.35
2022-12-22T06:00:20.776Z,0.30
2022-12-22T06:02:47.929Z,0.30
2022-12-22T06:05:15.855Z,0.20
2022-12-22T06:07:43.207Z,0.30
2022-12-22T06:10:12.828Z,0.60
2022-12-22T06:12:41.483Z,0.30
2022-12-22T06:15:11.231Z,0.32
2022-12-22T06:17:44.447Z,0.30
2022-12-22T06:20:13.282Z,0.30
2022-12-22T06:22:40.564Z,0.30
2022-12-22T06:25:12.064Z,0.40
2022-12-22T06:27:43.134Z,0.25
2022-12-22T06:30:10.638Z,0.40
2022-12-22T06:32:39.080Z,0.30
2022-12-22T06:35:08.131Z,0.30
2022-12-22T06:37:35.314Z,0.30
2022-12-22T06:40:02.818Z,0.30
2022-12-22T06:42:48.256Z,0.32
2022-12-22T06:45:15.525Z,0.50
2022-12-22T06:47:42.617Z,0.40
2022-12-22T06:50:10.575Z,0.30
2022-12-22T06:52:37.845Z,0.32
2022-12-22T06:55:05.392Z,0.30
2022-12-22T06:57:32.537Z,0.40
2022-12-22T07:00:00.157Z,0.45
2022-12-22T07:02:27.545Z,0.38
2022-12-22T07:04:54.870Z,0.40
2022-12-22T07:07:22.047Z,0.30
2022-12-22T07:09:49.264Z,0.43
2022-12-22T07:12:16.360Z,0.40
2022-12-22T07:14:43.456Z,0.40
2022-12-22T07:17:10.561Z,0.30
2022-12-22T07:19:37.716Z,0.30
2022-12-22T07:22:04.940Z,0.60
2022-12-22T07:24:32.186Z,0.50
2022-12-22T07:26:59.417Z,0.40
2022-12-22T07:29:26.561Z,0.33
2022-12-22T07:31:53.887Z,0.50
2022-12-22T07:34:21.037Z,0.60
2022-12-22T07:36:48.366Z,0.60
2022-12-22T07:39:15.636Z,0.60
2022-12-22T07:42:01.115Z,0.50
2022-12-22T07:44:28.277Z,0.60
2022-12-22T07:46:55.569Z,0.50
2022-12-22T07:49:41.210Z,0.50
2022-12-22T07:52:09.853Z,0.50
2022-12-22T07:54:41.654Z,0.80
2022-12-22T07:57:09.633Z,0.70
2022-12-22T07:59:36.737Z,0.50
2022-12-22T08:02:03.947Z,0.40
2022-12-22T08:04:31.200Z,0.50
2022-12-22T08:06:58.937Z,0.60
2022-12-22T08:09:26.144Z,0.40
2022-12-22T08:11:53.310Z,0.40
2022-12-22T08:14:20.647Z,0.40
2022-12-22T08:16:47.913Z,0.43
2022-12-22T08:19:15.147Z,0.60
2022-12-22T08:21:48.467Z,0.50
2022-12-22T08:24:19.706Z,0.50
2022-12-22T08:26:50.896Z,0.60
2022-12-22T08:29:32.630Z,0.50
2022-12-22T08:32:01.306Z,0.70
2022-12-22T08:34:28.822Z,0.50
2022-12-22T08:36:59.403Z,0.80
2022-12-22T08:39:30.800Z,0.63
2022-12-22T08:41:59.135Z,0.63
2022-12-22T08:44:28.410Z,0.50
2022-12-22T08:46:58.725Z,0.60
2022-12-22T08:49:26.540Z,0.50
2022-12-22T08:51:54.657Z,0.97
2022-12-22T08:54:22.358Z,0.70
2022-12-22T08:56:50.057Z,0.40
2022-12-22T08:59:17.648Z,0.53
2022-12-22T09:01:48.277Z,1.60
2022-12-22T09:04:18.336Z,0.43
2022-12-22T09:06:46.205Z,0.87
2022-12-22T09:09:15.611Z,0.70
2022-12-22T09:11:43.520Z,0.70
2022-12-22T09:14:12.088Z,0.90
2022-12-22T09:16:39.899Z,0.60
2022-12-22T09:19:07.948Z,0.77
2022-12-22T09:21:36.722Z,0.90
2022-12-22T09:24:10.187Z,0.77
2022-12-22T09:26:38.058Z,0.60
2022-12-22T09:29:05.437Z,0.60
2022-12-22T09:31:33.119Z,0.80
2022-12-22T09:34:01.006Z,0.60
2022-12-22T09:36:30.452Z,0.60
2022-12-22T09:38:57.808Z,0.52
2022-12-22T09:41:43.643Z,0.75
2022-12-22T09:44:22.968Z,0.55
2022-12-22T09:46:52.732Z,0.70
2022-12-22T09:49:21.029Z,0.70
2022-12-22T09:51:56.296Z,0.60
2022-12-22T09:54:25.041Z,0.65
2022-12-22T09:56:52.427Z,0.80
2022-12-22T09:59:22.574Z,0.80
2022-12-22T10:02:28.959Z,0.70
2022-12-22T10:05:27.885Z,0.40
2022-12-22T10:08:02.068Z,0.80
2022-12-22T10:10:31.455Z,0.70
2022-12-22T10:13:01.176Z,0.70
2022-12-22T10:15:38.953Z,0.70
2022-12-22T10:18:19.100Z,0.50
2022-12-22T10:21:06.262Z,0.45
2022-12-22T10:23:38.832Z,0.60
2022-12-22T10:26:30.758Z,0.52
2022-12-22T10:29:04.087Z,0.50
2022-12-22T10:31:34.153Z,0.70
2022-12-22T10:34:14.089Z,0.80
2022-12-22T10:36:48.124Z,0.40
2022-12-22T10:39:22.543Z,0.70
2022-12-22T10:41:55.454Z,1.08
2022-12-22T10:44:28.061Z,0.63
2022-12-22T10:46:58.417Z,0.80
2022-12-22T10:49:30.453Z,1.00
2022-12-22T10:52:39.077Z,0.65
2022-12-22T10:55:20.195Z,0.70
2022-12-22T10:57:48.740Z,0.82
2022-12-22T11:00:29.974Z,0.70
2022-12-22T11:03:00.358Z,0.68
2022-12-22T11:05:29.086Z,0.93
2022-12-22T11:07:57.545Z,0.75
2022-12-22T11:10:52.444Z,0.82
2022-12-22T11:13:43.258Z,1.08
2022-12-22T11:16:38.351Z,0.85
2022-12-22T11:19:34.572Z,0.73
2022-12-22T11:22:21.203Z,0.77
2022-12-22T11:25:11.246Z,0.90
2022-12-22T11:27:46.303Z,1.25
2022-12-22T11:30:20.960Z,0.90
2022-12-22T11:33:05.783Z,0.73
2022-12-22T11:35:57.552Z,1.00
2022-12-22T11:39:12.890Z,1.10
2022-12-22T11:41:59.626Z,1.33
2022-12-22T11:44:48.008Z,1.00
2022-12-22T11:47:53.231Z,1.35
2022-12-22T11:50:59.388Z,1.00
2022-12-22T11:53:24.498Z,1.20
2022-12-22T11:56:01.256Z,1.20
2022-12-22T11:58:48.103Z,1.13
2022-12-22T12:01:39.920Z,0.70
2022-12-22T12:04:42.497Z,1.40
2022-12-22T12:07:12.400Z,0.85
2022-12-22T12:09:58.904Z,1.27
2022-12-22T12:12:28.948Z,1.00
2022-12-22T12:15:18.265Z,0.98
2022-12-22T12:17:51.623Z,1.40
2022-12-22T12:20:37.010Z,1.13
2022-12-22T12:23:19.986Z,1.00
2022-12-22T12:25:56.042Z,1.95
2022-12-22T12:28:54.729Z,0.85
2022-12-22T12:31:27.964Z,1.50
2022-12-22T12:34:01.503Z,1.20
2022-12-22T12:36:42.142Z,1.00
2022-12-22T12:39:28.898Z,1.65
2022-12-22T12:42:23.538Z,1.08
2022-12-22T12:44:52.951Z,1.23
2022-12-22T12:47:27.621Z,1.10
2022-12-22T12:50:02.519Z,0.90
2022-12-22T12:52:44.173Z,1.38
2022-12-22T12:55:33.354Z,1.38
2022-12-22T12:58:05.830Z,1.10
2022-12-22T13:00:33.346Z,0.95
2022-12-22T13:03:02.007Z,0.82
2022-12-22T13:05:51.289Z,1.30
2022-12-22T13:08:23.109Z,1.10
2022-12-22T13:13:48.166Z,1.00
2022-12-22T13:16:15.780Z,0.93
2022-12-22T13:18:50.007Z,0.65
2022-12-22T13:24:26.267Z,0.82
2022-12-22T13:26:56.246Z,0.88
2022-12-22T13:29:27.447Z,0.90
2022-12-22T13:31:57.421Z,0.90
2022-12-22T13:35:04.266Z,1.00
2022-12-22T13:37:29.564Z,1.02
2022-12-22T13:40:19.254Z,1.00
2022-12-22T13:42:49.487Z,1.25
2022-12-22T13:45:26.193Z,0.73
2022-12-22T13:47:54.841Z,0.85
2022-12-22T13:50:38.060Z,1.20
2022-12-22T13:53:09.687Z,1.38
2022-12-22T13:55:38.340Z,1.50
2022-12-22T13:58:36.106Z,1.15
2022-12-22T14:01:14.871Z,1.58
2022-12-22T14:04:01.349Z,1.58
2022-12-22T14:06:38.484Z,1.52
2022-12-22T14:09:19.956Z,1.15
2022-12-22T14:12:11.738Z,1.17
2022-12-22T14:14:44.904Z,0.93
2022-12-22T14:17:52.220Z,1.05
2022-12-22T14:20:37.362Z,0.90
2022-12-22T14:23:34.565Z,1.08
2022-12-22T14:26:05.824Z,1.30
2022-12-22T14:28:39.699Z,1.58
2022-12-22T14:31:13.089Z,1.77
2022-12-22T14:33:54.837Z,1.35
2022-12-22T14:36:24.911Z,1.13
2022-12-22T14:38:55.488Z,1.58
2022-12-22T14:41:41.499Z,1.98
2022-12-22T14:44:28.249Z,1.42
2022-12-22T14:47:20.797Z,1.63
2022-12-22T14:49:52.549Z,1.00
2022-12-22T14:52:25.546Z,1.40
2022-12-22T14:54:54.746Z,1.52
2022-12-22T14:57:36.953Z,1.35
2022-12-22T15:00:12.104Z,1.60
2022-12-22T15:02:51.019Z,1.70
2022-12-22T15:05:25.194Z,1.02
2022-12-22T15:08:05.360Z,1.80
2022-12-22T15:10:41.480Z,1.27
2022-12-22T15:13:21.828Z,1.10
2022-12-22T15:15:53.671Z,1.25
2022-12-22T15:18:26.383Z,1.80
2022-12-22T15:20:56.185Z,1.00
2022-12-22T15:23:23.759Z,1.13
2022-12-22T15:25:50.940Z,1.50
2022-12-22T15:28:18.937Z,1.10
2022-12-22T15:30:46.318Z,1.23
2022-12-22T15:33:15.739Z,2.00
2022-12-22T15:35:47.168Z,0.93
2022-12-22T15:38:20.776Z,1.30
2022-12-22T15:40:49.486Z,1.30
2022-12-22T15:43:54.004Z,1.45
2022-12-22T15:46:06.671Z,1.40
2022-12-22T15:48:37.156Z,2.20
2022-12-22T15:51:21.070Z,1.47
2022-12-22T15:53:49.159Z,1.10
2022-12-22T15:56:21.190Z,1.50
2022-12-22T15:58:50.226Z,1.67
2022-12-22T16:01:22.199Z,1.57
2022-12-22T16:03:50.109Z,1.67
2022-12-22T16:06:20.071Z,1.00
2022-12-22T16:08:51.434Z,1.10
2022-12-22T16:11:21.279Z,1.80
2022-12-22T16:13:52.080Z,1.43
2022-12-22T16:16:19.439Z,1.47
2022-12-22T16:18:47.074Z,1.70
2022-12-22T16:21:19.143Z,1.20
2022-12-22T16:23:50.311Z,1.30
2022-12-22T16:26:21.761Z,1.10
2022-12-22T16:28:49.190Z,1.40
2022-12-22T16:31:23.063Z,2.30
2022-12-22T16:33:51.163Z,1.77
2022-12-22T16:36:19.628Z,1.70
2022-12-22T16:38:49.080Z,1.53
2022-12-22T16:41:59.581Z,1.40
2022-12-22T16:44:27.773Z,1.30
2022-12-22T16:46:56.669Z,1.45
2022-12-22T16:49:26.742Z,1.50
2022-12-22T16:51:55.390Z,1.60
2022-12-22T16:54:52.718Z,2.50
2022-12-22T16:57:20.196Z,2.40
2022-12-22T16:59:47.353Z,2.90
2022-12-22T17:02:26.773Z,2.10
2022-12-22T17:04:56.632Z,2.10
2022-12-22T17:07:23.751Z,2.60
2022-12-22T17:09:56.329Z,2.10
2022-12-22T17:12:27.116Z,2.80
2022-12-22T17:14:57.997Z,2.88
2022-12-22T17:17:32.873Z,2.70
2022-12-22T17:20:04.002Z,2.87
2022-12-22T17:22:33.492Z,2.93
2022-12-22T17:25:07.130Z,2.50
2022-12-22T17:27:35.581Z,2.60
2022-12-22T17:30:04.437Z,1.97
2022-12-22T17:32:32.007Z,2.20
2022-12-22T17:34:59.064Z,2.83
2022-12-22T17:37:28.977Z,2.60
2022-12-22T17:40:02.416Z,2.83
2022-12-22T17:42:31.611Z,2.40
2022-12-22T17:44:58.714Z,2.90
2022-12-22T17:47:34.664Z,2.40
2022-12-22T17:50:03.527Z,2.50
2022-12-22T17:52:31.036Z,2.03
2022-12-22T17:54:58.222Z,1.77
2022-12-22T17:57:32.968Z,2.27
2022-12-22T18:00:02.151Z,2.37
2022-12-22T18:02:39.852Z,1.43
2022-12-22T18:05:13.055Z,1.90
2022-12-22T18:07:44.064Z,1.85
2022-12-22T18:10:26.139Z,2.17
2022-12-22T18:12:56.676Z,1.55
2022-12-22T18:15:27.220Z,2.13
2022-12-22T18:17:56.755Z,1.77
2022-12-22T18:20:26.004Z,2.35
2022-12-22T18:23:02.352Z,3.90
2022-12-22T18:25:33.152Z,2.78
2022-12-22T18:28:00.899Z,2.25
2022-12-22T18:30:31.018Z,1.53
2022-12-22T18:32:58.217Z,1.97
2022-12-22T18:35:29.248Z,3.37
2022-12-22T18:38:00.629Z,3.00
2022-12-22T18:40:36.963Z,2.33
2022-12-22T18:43:13.023Z,2.60
2022-12-22T18:46:05.297Z,2.92
2022-12-22T18:48:33.979Z,2.05
2022-12-22T18:51:01.189Z,3.43
2022-12-22T18:53:31.020Z,3.55
2022-12-22T18:55:59.786Z,2.92
2022-12-22T18:58:27.764Z,2.75
2022-12-22T19:03:54.421Z,2.23
2022-12-22T19:06:22.941Z,1.93
2022-12-22T19:08:50.948Z,1.83
2022-12-22T19:11:24.014Z,2.07
2022-12-22T19:13:52.657Z,1.83
2022-12-22T19:16:25.116Z,1.60
2022-12-22T19:18:53.153Z,1.73
2022-12-22T19:21:20.823Z,2.55
2022-12-22T19:23:50.414Z,1.70
2022-12-22T19:26:26.290Z,2.15
2022-12-22T19:29:01.528Z,2.05
2022-12-22T19:31:35.050Z,2.42
2022-12-22T19:34:06.578Z,1.85
2022-12-22T19:36:34.500Z,1.73
2022-12-22T19:39:05.103Z,1.55
2022-12-22T19:42:06.376Z,2.13
2022-12-22T19:44:33.574Z,1.90
2022-12-22T19:47:02.522Z,1.92
2022-12-22T19:49:30.634Z,1.43
2022-12-22T19:51:58.603Z,1.30
2022-12-22T19:54:28.108Z,1.48
2022-12-22T19:56:58.948Z,1.52
2022-12-22T19:59:45.161Z,1.75
2022-12-22T20:05:36.102Z,1.80
2022-12-22T20:08:05.095Z,2.50
2022-12-22T20:10:34.825Z,2.00
2022-12-22T20:13:07.404Z,2.87
2022-12-22T20:16:04.814Z,1.53
2022-12-22T20:18:31.980Z,1.20
2022-12-22T20:21:16.586Z,2.05
2022-12-22T20:23:44.231Z,2.50
2022-12-22T20:26:21.445Z,2.10
2022-12-22T20:28:50.209Z,1.90
2022-12-22T20:31:23.152Z,2.70
2022-12-22T20:33:55.008Z,1.97
2022-12-22T20:36:32.156Z,2.58
2022-12-22T20:39:00.692Z,1.93
2022-12-22T20:41:28.686Z,2.00
2022-12-22T20:43:59.048Z,2.33
2022-12-22T20:46:29.387Z,1.35
2022-12-22T20:49:02.190Z,2.00
2022-12-22T20:51:32.514Z,2.33
2022-12-22T20:54:01.610Z,3.03
2022-12-22T20:56:40.188Z,1.90
2022-12-22T20:59:35.334Z,1.97
2022-12-22T21:02:04.201Z,2.58
2022-12-22T21:04:32.245Z,3.50
2022-12-22T21:07:01.013Z,1.77
2022-12-22T21:09:28.339Z,1.93
2022-12-22T21:12:21.155Z,2.47
2022-12-22T21:14:52.799Z,1.70
2022-12-22T21:17:20.836Z,2.07
2022-12-22T21:19:51.067Z,2.63
2022-12-22T21:22:23.449Z,1.43
2022-12-22T21:24:51.251Z,2.07
2022-12-22T21:27:23.504Z,1.50
2022-12-22T21:29:52.182Z,2.20
2022-12-22T21:32:19.295Z,3.57
2022-12-22T21:34:46.479Z,2.30
2022-12-22T21:37:19.792Z,2.03
2022-12-22T21:39:47.557Z,2.50
2022-12-22T21:42:19.774Z,2.60
2022-12-22T21:44:47.324Z,1.73
2022-12-22T21:47:17.145Z,1.90
2022-12-22T21:49:44.755Z,1.90
2022-12-22T21:52:15.226Z,1.53
2022-12-22T21:54:43.339Z,1.97
2022-12-22T21:57:16.009Z,2.30
2022-12-22T21:59:43.185Z,1.90
2022-12-22T22:02:19.335Z,1.70
2022-12-22T22:04:54.479Z,1.33
2022-12-22T22:07:27.112Z,1.10
2022-12-22T22:09:54.206Z,1.20
2022-12-22T22:15:50.098Z,0.90
2022-12-22T22:18:20.179Z,1.30
2022-12-22T22:20:48.146Z,0.80
2022-12-22T22:23:15.350Z,1.20
2022-12-22T22:25:42.923Z,1.17
2022-12-22T22:28:11.789Z,1.10
2022-12-22T22:30:42.166Z,0.80
2022-12-22T22:33:10.960Z,0.90
2022-12-22T22:35:41.265Z,1.20
2022-12-22T22:38:13.584Z,0.70
2022-12-22T22:40:47.030Z,1.00
2022-12-22T22:43:15.187Z,0.80
2022-12-22T22:45:42.855Z,0.87
2022-12-22T22:48:19.362Z,0.90
2022-12-22T22:50:46.632Z,0.93
2022-12-22T22:53:13.932Z,0.60
2022-12-22T22:55:41.121Z,0.77
2022-12-22T22:58:08.793Z,1.10
2022-12-22T23:00:35.937Z,1.00
2022-12-22T23:03:04.531Z,1.13
2022-12-22T23:05:31.905Z,1.07
2022-12-22T23:07:59.138Z,1.00
2022-12-22T23:10:26.233Z,1.20
2022-12-22T23:12:53.332Z,1.00
2022-12-22T23:15:20.603Z,0.93
2022-12-22T23:17:47.714Z,1.50
2022-12-22T23:20:15.016Z,0.90
2022-12-22T23:22:42.087Z,1.33
2022-12-22T23:25:09.662Z,1.00
2022-12-22T23:27:36.738Z,1.23
2022-12-22T23:30:04.753Z,1.07
2022-12-22T23:32:31.840Z,1.23
2022-12-22T23:34:59.096Z,1.20
2022-12-22T23:37:26.532Z,1.20
2022-12-22T23:39:53.745Z,1.30
2022-12-22T23:42:20.829Z,1.20
2022-12-22T23:44:48.656Z,1.13
2022-12-22T23:47:15.760Z,1.00
2022-12-22T23:49:43.004Z,1.07
2022-12-22T23:52:10.111Z,1.50
2022-12-22T23:54:37.268Z,1.33
2022-12-22T23:57:04.452Z,1.10
2022-12-22T23:59:31.703Z,1.43
